Time;durP1;ratioP1;P1;durP2;ratioP2;P2;SDS_P1;SDS_P2;PMS_P1;PMS_P2;Temp;Humidity;BMP_temperature;BMP_pressure;BME280_temperature;BME280_humidity;BME280_pressure;Samples;Min_cycle;Max_cycle;Signal;HPM_P1;HPM_P2
2021/03/25 00:01:00;;;;;;;20.25;8.50;;;10.90;71.90;;;;;;4991999;28;20113;-74
2021/03/25 00:03:26;;;;;;;20.25;8.35;;;10.90;72.00;;;;;;4992559;28;20034;-73
2021/03/25 00:05:53;;;;;;;24.30;8.05;;;10.90;72.00;;;;;;4991918;28;20085;-75
2021/03/25 00:08:21;;;;;;;22.33;8.15;;;10.90;72.10;;;;;;4974533;28;20046;-74
2021/03/25 00:10:47;;;;;;;18.98;7.72;;;10.90;72.10;;;;;;4974494;28;20026;-74
2021/03/25 00:13:13;;;;;;;22.45;8.23;;;10.90;72.10;;;;;;4974716;28;20441;-76
2021/03/25 00:15:40;;;;;;;16.15;7.40;;;10.80;72.10;;;;;;4975156;28;20026;-75
2021/03/25 00:18:06;;;;;;;19.98;7.30;;;10.90;72.10;;;;;;4992007;28;20256;-75
2021/03/25 00:20:32;;;;;;;20.02;7.57;;;10.90;72.20;;;;;;4991525;28;20038;-75
2021/03/25 00:22:58;;;;;;;24.23;7.38;;;10.90;72.30;;;;;;4974233;28;20038;-75
2021/03/25 00:25:28;;;;;;;22.70;7.00;;;10.90;72.40;;;;;;4974897;28;20438;-74
2021/03/25 00:27:54;;;;;;;19.38;7.43;;;10.80;72.40;;;;;;4991796;28;20478;-75
2021/03/25 00:30:23;;;;;;;25.02;7.28;;;10.80;72.50;;;;;;4992245;28;20062;-75
2021/03/25 00:32:49;;;;;;;17.45;7.82;;;10.80;72.60;;;;;;4991699;28;20022;-75
2021/03/25 00:35:16;;;;;;;19.08;7.03;;;10.80;72.70;;;;;;4992226;28;20033;-74
2021/03/25 00:37:41;;;;;;;18.02;6.53;;;10.80;72.80;;;;;;4992242;28;20462;-74
2021/03/25 00:40:09;;;;;;;19.17;7.28;;;10.70;72.80;;;;;;4991277;28;20191;-74
2021/03/25 00:42:35;;;;;;;19.02;6.82;;;10.70;72.90;;;;;;4992197;28;20030;-75
2021/03/25 00:45:03;;;;;;;19.55;7.57;;;10.70;73.00;;;;;;4991484;28;20039;-75
2021/03/25 00:47:28;;;;;;;15.45;6.10;;;10.70;73.00;;;;;;4991942;28;20030;-75
2021/03/25 00:49:54;;;;;;;18.08;6.72;;;10.70;73.10;;;;;;4991526;28;20386;-75
2021/03/25 00:52:19;;;;;;;19.85;7.88;;;10.70;73.10;;;;;;4991777;28;20034;-75
2021/03/25 00:54:45;;;;;;;15.13;6.65;;;10.60;73.00;;;;;;4991735;28;20113;-75
2021/03/25 00:57:11;;;;;;;21.83;7.72;;;10.60;73.10;;;;;;4974064;28;20038;-75
2021/03/25 00:59:36;;;;;;;19.63;7.20;;;10.60;73.20;;;;;;4974515;28;20025;-74
2021/03/25 01:02:02;;;;;;;19.10;7.70;;;10.60;73.20;;;;;;4991155;28;20081;-75
2021/03/25 01:04:28;;;;;;;22.38;8.43;;;10.60;73.30;;;;;;4991824;28;20030;-74
2021/03/25 01:06:53;;;;;;;19.83;7.30;;;10.60;73.30;;;;;;4991227;28;20104;-75
2021/03/25 01:09:22;;;;;;;21.13;8.18;;;10.50;73.30;;;;;;4974662;28;20040;-74
2021/03/25 01:11:50;;;;;;;16.17;7.45;;;10.50;73.30;;;;;;4992010;28;20026;-75
2021/03/25 01:14:20;;;;;;;19.38;7.68;;;10.60;73.40;;;;;;4992186;28;20038;-74
2021/03/25 01:16:47;;;;;;;23.65;7.45;;;10.60;73.40;;;;;;4974378;28;20527;-75
2021/03/25 01:19:19;;;;;;;22.90;9.18;;;10.60;73.40;;;;;;4991407;28;20030;-75
2021/03/25 01:21:45;;;;;;;22.27;6.80;;;10.60;73.40;;;;;;4992096;28;20033;-75
2021/03/25 01:24:11;;;;;;;21.05;7.57;;;10.60;73.40;;;;;;4973732;28;20523;-75
2021/03/25 01:26:37;;;;;;;20.63;7.72;;;10.60;73.40;;;;;;4974411;28;20158;-74
2021/03/25 01:29:04;;;;;;;19.88;7.50;;;10.60;73.40;;;;;;4991025;28;20331;-74
2021/03/25 01:31:30;;;;;;;19.08;7.40;;;10.60;73.40;;;;;;4975072;28;20055;-74
2021/03/25 01:33:56;;;;;;;19.67;6.90;;;10.50;73.40;;;;;;4994712;28;20022;-75
2021/03/25 01:36:22;;;;;;;19.10;8.27;;;10.50;73.40;;;;;;4995569;28;20038;-74
2021/03/25 01:38:48;;;;;;;21.83;7.65;;;10.50;73.50;;;;;;4995587;28;20030;-74
2021/03/25 01:41:14;;;;;;;19.33;7.32;;;10.50;73.50;;;;;;4994369;28;20023;-74
2021/03/25 01:43:43;;;;;;;20.85;6.88;;;10.60;73.60;;;;;;4994796;28;20084;-75
2021/03/25 01:46:31;;;;;;;21.08;7.32;;;10.50;73.60;;;;;;4994494;28;20027;-74
2021/03/25 01:49:05;;;;;;;23.90;8.15;;;10.60;73.70;;;;;;4976943;28;20414;-75
2021/03/25 01:51:51;;;;;;;22.67;7.53;;;10.50;73.70;;;;;;4995043;28;20030;-74
2021/03/25 01:54:35;;;;;;;19.30;6.85;;;10.50;73.80;;;;;;4994068;28;20467;-74
2021/03/25 01:57:23;;;;;;;22.23;7.53;;;10.50;73.70;;;;;;4976674;28;20481;-75
2021/03/25 02:00:04;;;;;;;21.67;7.50;;;10.60;73.80;;;;;;4977236;28;20109;-74
2021/03/25 02:02:57;;;;;;;15.33;7.83;;;10.60;73.80;;;;;;4977591;28;20072;-74
2021/03/25 02:05:29;;;;;;;15.50;6.93;;;10.50;73.70;;;;;;4994852;28;20269;-74
2021/03/25 02:08:18;;;;;;;18.75;7.40;;;10.60;73.80;;;;;;4994059;28;20042;-74
2021/03/25 02:11:09;;;;;;;24.90;8.05;;;10.60;73.80;;;;;;4993883;28;20026;-74
2021/03/25 02:14:16;;;;;;;20.05;7.15;;;10.60;73.80;;;;;;4977133;28;20023;-74
2021/03/25 02:17:09;;;;;;;25.23;8.07;;;10.60;73.80;;;;;;4994619;28;20102;-75
2021/03/25 02:19:35;;;;;;;23.65;9.30;;;10.60;73.80;;;;;;4976915;28;20019;-74
2021/03/25 02:22:38;;;;;;;19.73;7.95;;;10.50;73.80;;;;;;4976419;28;20023;-74
2021/03/25 02:25:10;;;;;;;16.73;7.70;;;10.60;73.80;;;;;;4993504;28;20038;-74
2021/03/25 02:28:03;;;;;;;22.73;8.68;;;10.60;73.90;;;;;;4994462;28;20019;-74
2021/03/25 02:30:57;;;;;;;22.55;8.38;;;10.60;74.00;;;;;;4976806;28;20053;-75
2021/03/25 02:33:23;;;;;;;16.20;7.80;;;10.60;74.00;;;;;;4983256;28;20100;-75
2021/03/25 02:36:00;;;;;;;24.15;8.30;;;10.60;74.00;;;;;;4976710;28;20030;-74
2021/03/25 02:38:46;;;;;;;24.50;8.95;;;10.60;74.00;;;;;;4994238;28;20050;-75
2021/03/25 02:41:22;;;;;;;28.77;8.27;;;10.60;73.90;;;;;;4993547;28;20169;-75
2021/03/25 02:43:57;;;;;;;24.80;8.93;;;10.70;74.00;;;;;;4993213;28;20046;-74
2021/03/25 02:46:37;;;;;;;25.92;9.70;;;10.70;74.00;;;;;;4993987;28;20030;-74
2021/03/25 02:49:07;;;;;;;20.45;7.30;;;10.70;73.90;;;;;;4993034;28;20103;-73
2021/03/25 02:51:41;;;;;;;22.17;8.23;;;10.70;74.10;;;;;;4993697;28;20027;-74
2021/03/25 02:54:07;;;;;;;22.02;8.75;;;10.70;74.10;;;;;;4993294;28;20419;-74
2021/03/25 02:56:39;;;;;;;25.98;8.57;;;10.70;74.00;;;;;;4976071;28;20025;-74
2021/03/25 02:59:11;;;;;;;20.67;8.23;;;10.70;74.00;;;;;;4975809;28;20026;-74
2021/03/25 03:01:42;;;;;;;25.35;9.25;;;10.70;74.00;;;;;;4993677;28;20101;-74
2021/03/25 03:04:24;;;;;;;26.85;8.20;;;10.70;74.00;;;;;;4975861;28;20088;-74
2021/03/25 03:06:54;;;;;;;18.80;7.72;;;10.70;74.00;;;;;;4993872;28;20081;-74
2021/03/25 03:09:46;;;;;;;23.92;9.07;;;10.70;74.00;;;;;;4992221;28;20030;-72
2021/03/25 03:12:16;;;;;;;25.65;8.48;;;10.70;74.00;;;;;;4992930;28;20022;-74
2021/03/25 03:14:49;;;;;;;21.17;8.47;;;10.70;74.00;;;;;;4975960;28;20121;-74
2021/03/25 03:17:18;;;;;;;24.83;8.48;;;10.70;74.00;;;;;;4992596;28;20423;-74
2021/03/25 03:19:54;;;;;;;24.85;8.75;;;10.70;74.00;;;;;;4993021;28;20022;-74
2021/03/25 03:22:20;;;;;;;22.88;8.70;;;10.70;74.10;;;;;;4992951;28;20034;-74
2021/03/25 03:24:50;;;;;;;25.30;9.00;;;10.70;74.20;;;;;;4975928;28;20383;-74
2021/03/25 03:27:33;;;;;;;30.38;9.63;;;10.70;74.20;;;;;;4975073;28;20049;-74
2021/03/25 03:30:01;;;;;;;27.33;10.55;;;10.70;74.10;;;;;;4975752;28;20451;-74
2021/03/25 03:32:56;;;;;;;26.40;10.57;;;10.80;74.10;;;;;;4992889;28;20463;-75
2021/03/25 03:35:36;;;;;;;19.42;7.90;;;10.80;74.00;;;;;;4976960;28;20043;-74
2021/03/25 03:38:10;;;;;;;28.33;9.13;;;10.80;74.10;;;;;;4992495;28;20023;-75
2021/03/25 03:40:40;;;;;;;31.15;9.82;;;10.70;74.00;;;;;;4992843;28;20089;-74
2021/03/25 03:43:13;;;;;;;25.17;9.13;;;10.70;74.00;;;;;;4974688;28;20034;-74
2021/03/25 03:46:07;;;;;;;30.00;10.43;;;10.70;74.10;;;;;;4992829;28;20033;-75
2021/03/25 03:49:01;;;;;;;24.58;9.55;;;10.70;74.00;;;;;;4952695;28;20035;-74
2021/03/25 03:51:27;;;;;;;25.35;9.00;;;10.80;74.00;;;;;;4992767;28;20022;-74
2021/03/25 03:54:00;;;;;;;27.65;10.38;;;10.80;73.90;;;;;;4975164;28;20052;-74
2021/03/25 03:56:49;;;;;;;28.27;9.02;;;10.80;73.90;;;;;;4992492;28;20029;-74
2021/03/25 03:59:38;;;;;;;29.65;11.55;;;10.80;73.90;;;;;;4974349;28;20041;-73
2021/03/25 04:02:13;;;;;;;31.85;11.10;;;10.70;74.00;;;;;;4974547;28;20029;-74
2021/03/25 04:04:42;;;;;;;26.98;10.25;;;10.70;74.00;;;;;;4992425;28;20081;-74
2021/03/25 04:07:14;;;;;;;29.02;10.82;;;10.70;74.00;;;;;;4991759;28;20054;-74
2021/03/25 04:09:51;;;;;;;29.77;11.82;;;10.70;74.10;;;;;;4992355;28;20026;-74
2021/03/25 04:12:26;;;;;;;28.25;11.00;;;10.70;74.30;;;;;;4991708;28;20375;-74
2021/03/25 04:15:00;;;;;;;33.55;12.52;;;10.70;74.20;;;;;;4992378;28;20036;-74
2021/03/25 04:17:29;;;;;;;32.20;10.85;;;10.70;74.20;;;;;;4974379;28;20026;-74
2021/03/25 04:19:58;;;;;;;22.77;10.13;;;10.70;74.20;;;;;;4992646;28;20027;-74
2021/03/25 04:22:36;;;;;;;33.78;10.75;;;10.70;74.10;;;;;;4991606;28;20023;-75
2021/03/25 04:25:20;;;;;;;27.17;9.88;;;10.70;74.20;;;;;;4992491;28;20569;-74
2021/03/25 04:27:52;;;;;;;32.08;11.57;;;10.80;74.30;;;;;;4992398;28;20022;-74
2021/03/25 04:30:25;;;;;;;25.35;10.25;;;10.70;74.20;;;;;;4973988;28;20051;-74
2021/03/25 04:32:50;;;;;;;27.48;11.90;;;10.70;74.20;;;;;;4974938;28;20447;-73
2021/03/25 04:35:18;;;;;;;29.42;10.63;;;10.70;74.20;;;;;;4991955;28;20167;-73
2021/03/25 04:37:45;;;;;;;29.50;10.70;;;10.70;74.20;;;;;;4992348;28;20030;-73
2021/03/25 04:40:15;;;;;;;23.60;10.55;;;10.70;74.20;;;;;;4991369;28;20030;-73
2021/03/25 04:42:43;;;;;;;28.48;10.15;;;10.70;74.90;;;;;;4991956;28;20077;-75
2021/03/25 04:45:30;;;;;;;26.77;8.95;;;10.70;74.20;;;;;;4974033;28;20456;-72
2021/03/25 04:48:00;;;;;;;29.63;11.20;;;10.70;74.30;;;;;;4992260;28;20150;-75
2021/03/25 04:50:36;;;;;;;31.45;11.27;;;10.70;74.50;;;;;;4991222;28;20510;-76
2021/03/25 04:53:17;;;;;;;23.58;9.27;;;10.70;74.50;;;;;;4974823;28;20086;-74
2021/03/25 04:55:42;;;;;;;26.27;10.10;;;10.60;74.50;;;;;;4992194;28;20041;-75
2021/03/25 04:58:12;;;;;;;28.90;9.88;;;10.60;74.50;;;;;;4973835;28;20466;-75
2021/03/25 05:00:42;;;;;;;23.30;10.65;;;10.70;75.20;;;;;;4992402;28;20022;-75
2021/03/25 05:03:20;;;;;;;25.70;10.23;;;10.60;74.50;;;;;;4974004;28;20037;-75
2021/03/25 05:05:46;;;;;;;21.90;9.05;;;10.60;75.30;;;;;;4974771;28;20050;-75
2021/03/25 05:08:19;;;;;;;29.35;10.63;;;10.60;74.70;;;;;;4976921;28;20513;-74
2021/03/25 05:10:52;;;;;;;24.15;10.82;;;10.60;74.70;;;;;;4976783;28;20098;-73
2021/03/25 05:13:19;;;;;;;27.88;11.73;;;10.60;75.20;;;;;;4977406;28;20100;-73
2021/03/25 05:15:45;;;;;;;26.77;10.52;;;10.50;74.70;;;;;;4994947;28;20033;-74
2021/03/25 05:18:28;;;;;;;27.50;10.57;;;10.50;75.50;;;;;;4976267;28;20113;-74
2021/03/25 05:21:20;;;;;;;30.77;10.77;;;10.50;74.90;;;;;;4977373;28;20451;-74
2021/03/25 05:23:49;;;;;;;24.67;10.77;;;10.50;74.90;;;;;;4993437;28;20030;-75
2021/03/25 05:26:29;;;;;;;26.17;10.25;;;10.50;74.90;;;;;;4994974;28;20030;-74
2021/03/25 05:29:00;;;;;;;30.48;11.50;;;10.50;75.00;;;;;;4995758;28;20026;-77
2021/03/25 05:31:28;;;;;;;20.77;10.10;;;10.50;75.00;;;;;;4977656;28;20130;-78
2021/03/25 05:33:57;;;;;;;24.58;10.88;;;10.50;75.10;;;;;;4995589;28;20105;-77
2021/03/25 05:36:24;;;;;;;26.67;10.30;;;10.40;75.20;;;;;;4995032;28;20027;-75
2021/03/25 05:38:53;;;;;;;22.15;9.98;;;10.40;75.30;;;;;;4977983;28;20022;-75
2021/03/25 05:41:48;;;;;;;22.55;8.88;;;10.30;75.40;;;;;;4994606;28;20054;-75
2021/03/25 05:44:33;;;;;;;26.40;9.82;;;10.30;75.60;;;;;;4994617;28;20026;-74
2021/03/25 05:47:29;;;;;;;23.67;11.23;;;10.20;75.80;;;;;;4995447;28;20022;-75
2021/03/25 05:50:10;;;;;;;34.72;10.40;;;10.20;75.80;;;;;;4994190;28;20121;-75
2021/03/25 05:53:10;;;;;;;24.02;9.55;;;10.10;76.00;;;;;;4992677;28;20030;-75
2021/03/25 05:55:38;;;;;;;27.73;10.48;;;10.10;76.00;;;;;;4993237;28;20022;-72
2021/03/25 05:58:38;;;;;;;19.08;8.80;;;10.00;76.20;;;;;;4992988;28;20045;-74
2021/03/25 06:01:32;;;;;;;26.63;10.10;;;10.00;76.10;;;;;;4975569;28;20110;-77
2021/03/25 06:04:13;;;;;;;27.23;9.05;;;10.00;76.20;;;;;;4992967;28;20080;-78
2021/03/25 06:07:03;;;;;;;32.90;12.15;;;10.00;76.20;;;;;;4975351;28;20038;-75
2021/03/25 06:09:38;;;;;;;32.13;10.98;;;10.00;76.30;;;;;;4991827;28;20018;-76
2021/03/25 06:12:29;;;;;;;28.05;10.68;;;10.00;76.30;;;;;;4992273;28;20038;-76
2021/03/25 06:15:23;;;;;;;32.97;10.80;;;10.00;76.20;;;;;;4992291;28;20085;-78
2021/03/25 06:18:36;;;;;;;24.92;9.68;;;10.00;76.10;;;;;;4971662;28;20035;-78
2021/03/25 06:21:38;;;;;;;30.17;9.68;;;10.00;76.30;;;;;;4937778;28;20026;-78
2021/03/25 06:24:15;;;;;;;28.73;11.57;;;9.90;76.50;;;;;;4972880;28;20031;-75
2021/03/25 06:26:47;;;;;;;30.45;10.15;;;9.80;76.60;;;;;;4956776;28;20030;-75
2021/03/25 06:29:43;;;;;;;29.40;11.13;;;9.90;76.90;;;;;;4973846;28;20027;-75
2021/03/25 06:32:34;;;;;;;37.35;11.15;;;9.80;76.90;;;;;;4969869;28;20035;-75
2021/03/25 06:35:11;;;;;;;32.25;11.88;;;9.90;76.90;;;;;;4956361;28;20026;-75
2021/03/25 06:37:41;;;;;;;23.17;9.90;;;9.90;76.90;;;;;;4973700;28;20030;-74
2021/03/25 06:40:18;;;;;;;22.48;10.32;;;9.90;76.80;;;;;;4974054;28;20077;-74
2021/03/25 06:43:09;;;;;;;34.17;11.55;;;10.00;76.80;;;;;;4974203;28;20019;-74
2021/03/25 06:45:48;;;;;;;27.92;11.38;;;10.00;76.60;;;;;;4974269;28;20050;-74
2021/03/25 06:48:42;;;;;;;25.40;9.07;;;10.00;76.50;;;;;;4974579;28;20029;-74
2021/03/25 06:51:41;;;;;;;37.80;13.38;;;10.10;76.40;;;;;;4971710;28;20145;-74
2021/03/25 06:54:20;;;;;;;28.20;11.02;;;10.20;76.60;;;;;;4968185;28;20039;-74
2021/03/25 06:56:52;;;;;;;34.53;11.63;;;10.10;76.50;;;;;;4956166;28;20029;-74
2021/03/25 06:59:24;;;;;;;32.92;12.93;;;10.10;76.50;;;;;;4955650;28;20026;-74
2021/03/25 07:01:55;;;;;;;33.80;11.02;;;10.10;76.50;;;;;;4973258;28;20023;-75
2021/03/25 07:04:22;;;;;;;38.42;12.27;;;10.10;76.50;;;;;;4955415;28;20039;-74
2021/03/25 07:06:49;;;;;;;32.63;12.85;;;10.10;76.70;;;;;;4949983;28;675398;-74
2021/03/25 07:09:15;;;;;;;24.23;9.93;;;10.00;76.90;;;;;;4956853;28;20034;-74
2021/03/25 07:11:42;;;;;;;30.85;13.00;;;10.00;77.00;;;;;;4973529;28;20031;-74
2021/03/25 07:14:25;;;;;;;41.42;12.63;;;10.00;77.90;;;;;;4974414;28;20511;-75
2021/03/25 07:16:51;;;;;;;28.83;10.48;;;10.00;77.30;;;;;;4956766;28;20113;-74
2021/03/25 07:19:21;;;;;;;25.23;10.38;;;10.00;77.40;;;;;;4974251;28;20071;-75
2021/03/25 07:21:52;;;;;;;27.85;10.98;;;10.00;77.40;;;;;;4973900;28;20057;-74
2021/03/25 07:24:34;;;;;;;30.73;11.55;;;10.00;77.50;;;;;;4973939;28;20039;-74
2021/03/25 07:27:17;;;;;;;34.97;11.23;;;10.00;77.50;;;;;;4973906;28;20071;-75
2021/03/25 07:30:03;;;;;;;31.55;11.05;;;10.00;77.60;;;;;;4955481;28;20045;-74
2021/03/25 07:32:48;;;;;;;32.03;10.95;;;10.00;77.50;;;;;;4955990;28;20026;-74
2021/03/25 07:35:23;;;;;;;21.92;10.35;;;10.00;77.50;;;;;;4956341;28;20093;-75
2021/03/25 07:37:49;;;;;;;31.75;13.63;;;9.90;77.70;;;;;;4973470;28;20106;-74
2021/03/25 07:40:38;;;;;;;35.83;11.40;;;10.00;77.90;;;;;;4973311;28;20356;-74
2021/03/25 07:43:23;;;;;;;32.17;12.05;;;10.00;77.90;;;;;;4973700;28;20118;-73
2021/03/25 07:46:04;;;;;;;30.77;12.77;;;10.00;77.90;;;;;;4973614;28;20031;-75
2021/03/25 07:48:30;;;;;;;35.53;13.73;;;10.00;78.40;;;;;;4972594;28;20407;-73
2021/03/25 07:51:14;;;;;;;36.03;13.68;;;10.00;78.50;;;;;;4973639;28;20023;-75
2021/03/25 07:53:40;;;;;;;30.88;12.52;;;10.00;78.70;;;;;;4972864;28;20105;-74
2021/03/25 07:56:11;;;;;;;28.90;13.00;;;10.00;78.60;;;;;;4973375;28;20034;-75
2021/03/25 07:58:48;;;;;;;33.17;12.50;;;10.10;78.70;;;;;;4972804;28;20027;-75
2021/03/25 08:01:17;;;;;;;31.63;11.43;;;10.10;78.50;;;;;;4973413;28;20263;-75
2021/03/25 08:03:50;;;;;;;30.02;13.57;;;10.20;78.50;;;;;;4972390;28;20034;-74
2021/03/25 08:06:37;;;;;;;32.22;12.73;;;10.20;78.50;;;;;;4955564;28;20030;-75
2021/03/25 08:09:13;;;;;;;32.63;13.15;;;10.30;78.30;;;;;;4972831;28;20446;-75
2021/03/25 08:11:57;;;;;;;32.47;13.43;;;10.40;78.10;;;;;;4972690;28;20022;-75
2021/03/25 08:14:30;;;;;;;32.95;12.85;;;10.50;78.10;;;;;;4972691;28;20019;-73
2021/03/25 08:17:11;;;;;;;40.97;16.38;;;10.50;77.90;;;;;;4972926;28;20019;-75
2021/03/25 08:19:46;;;;;;;27.50;12.95;;;10.60;78.00;;;;;;4972457;28;20059;-73
2021/03/25 08:22:44;;;;;;;25.33;10.13;;;10.60;78.00;;;;;;4973057;28;20486;-75
2021/03/25 08:25:33;;;;;;;30.35;12.75;;;10.70;78.00;;;;;;4955677;28;20027;-74
2021/03/25 08:28:18;;;;;;;31.58;12.48;;;10.70;78.10;;;;;;4973043;28;20022;-75
2021/03/25 08:31:13;;;;;;;28.05;12.80;;;10.60;78.00;;;;;;4972239;28;20023;-74
2021/03/25 08:33:46;;;;;;;34.33;12.35;;;10.70;78.20;;;;;;4972416;28;20026;-74
2021/03/25 08:36:33;;;;;;;25.77;11.65;;;10.60;78.30;;;;;;4955575;28;20482;-75
2021/03/25 08:39:07;;;;;;;29.10;11.38;;;10.70;78.20;;;;;;4972730;28;20030;-74
2021/03/25 08:41:47;;;;;;;23.83;10.98;;;10.70;78.20;;;;;;4973482;28;20061;-74
2021/03/25 08:44:32;;;;;;;33.70;13.13;;;10.90;78.10;;;;;;4958945;28;20026;-74
2021/03/25 08:47:02;;;;;;;31.60;12.70;;;10.90;78.00;;;;;;4976788;28;20035;-74
2021/03/25 08:49:37;;;;;;;28.95;12.48;;;10.90;78.00;;;;;;4976154;28;20019;-74
2021/03/25 08:52:07;;;;;;;26.92;13.15;;;10.90;78.20;;;;;;4976664;28;20058;-75
2021/03/25 08:54:42;;;;;;;25.70;11.20;;;10.90;78.50;;;;;;4975931;28;20089;-75
2021/03/25 08:57:23;;;;;;;29.02;12.27;;;10.90;78.40;;;;;;4976303;28;20019;-75
2021/03/25 09:00:00;;;;;;;30.23;11.50;;;11.00;78.40;;;;;;4958864;28;20458;-75
2021/03/25 09:02:50;;;;;;;26.13;11.13;;;11.10;78.20;;;;;;4975868;28;20027;-75
2021/03/25 09:05:25;;;;;;;28.77;10.95;;;11.20;78.00;;;;;;4976464;28;20051;-75
2021/03/25 09:07:54;;;;;;;28.67;11.23;;;11.30;77.90;;;;;;4975624;28;20051;-75
2021/03/25 09:10:43;;;;;;;23.52;9.93;;;11.30;77.70;;;;;;4976254;28;20038;-74
2021/03/25 09:13:19;;;;;;;24.08;9.55;;;11.40;77.80;;;;;;4976411;28;20380;-75
2021/03/25 09:15:45;;;;;;;23.90;9.93;;;11.50;77.80;;;;;;4975784;28;20027;-74
2021/03/25 09:18:17;;;;;;;28.50;10.20;;;11.50;77.50;;;;;;4976674;28;20074;-75
2021/03/25 09:20:44;;;;;;;;;;;11.70;77.20;;;;;;4976010;28;20031;-75
2021/03/25 09:23:28;;;;;;;19.88;9.52;;;11.70;77.00;;;;;;4975966;28;19952;-74
2021/03/25 09:25:54;;;;;;;25.33;10.45;;;11.90;76.80;;;;;;4958691;28;20467;-74
2021/03/25 09:28:21;;;;;;;24.80;10.15;;;12.00;76.50;;;;;;4958638;28;20027;-75
2021/03/25 09:31:05;;;;;;;26.48;10.95;;;12.10;76.20;;;;;;4975313;28;20526;-74
2021/03/25 09:33:53;;;;;;;26.23;10.40;;;12.30;75.90;;;;;;4957759;28;20153;-74
2021/03/25 09:36:19;;;;;;;25.23;11.43;;;12.40;75.80;;;;;;4976076;28;20114;-75
2021/03/25 09:39:00;;;;;;;24.95;10.20;;;12.30;75.70;;;;;;4975326;28;20430;-74
2021/03/25 09:41:25;;;;;;;17.47;9.53;;;12.30;75.90;;;;;;4975766;28;20121;-74
2021/03/25 09:44:09;;;;;;;18.38;8.93;;;12.20;76.10;;;;;;4975018;28;20369;-74
2021/03/25 09:46:43;;;;;;;24.67;10.82;;;12.30;76.10;;;;;;4975323;28;20026;-76
2021/03/25 09:49:26;;;;;;;21.73;11.20;;;12.40;75.80;;;;;;4958056;28;20432;-75
2021/03/25 09:52:19;;;;;;;22.15;9.32;;;12.60;75.50;;;;;;4957264;28;20038;-75
2021/03/25 09:54:57;;;;;;;21.20;9.65;;;12.80;75.00;;;;;;4957524;28;20038;-76
2021/03/25 09:57:34;;;;;;;23.60;9.93;;;13.00;74.60;;;;;;4976059;28;20023;-76
2021/03/25 10:00:17;;;;;;;19.48;8.43;;;13.20;74.00;;;;;;4975884;28;20033;-74
2021/03/25 10:02:51;;;;;;;20.95;8.93;;;13.20;73.30;;;;;;4975005;28;20027;-74
2021/03/25 10:05:17;;;;;;;18.05;9.15;;;13.30;73.20;;;;;;4975523;28;20086;-74
2021/03/25 10:07:42;;;;;;;23.10;9.00;;;13.30;72.80;;;;;;4974647;28;20055;-74
2021/03/25 10:10:23;;;;;;;18.13;8.52;;;13.30;72.70;;;;;;4975270;28;20027;-74
2021/03/25 10:13:29;;;;;;;20.37;9.67;;;13.50;72.50;;;;;;4974772;28;20077;-75
2021/03/25 10:16:11;;;;;;;19.73;8.10;;;13.50;72.10;;;;;;4957460;28;20346;-78
2021/03/25 10:18:37;;;;;;;19.02;8.13;;;13.50;72.00;;;;;;4957561;28;20019;-78
2021/03/25 10:21:15;;;;;;;22.45;9.50;;;13.50;72.00;;;;;;4958236;28;20030;-77
2021/03/25 10:23:50;;;;;;;20.35;8.15;;;13.60;71.90;;;;;;4957631;28;20035;-76
2021/03/25 10:26:36;;;;;;;20.55;7.80;;;13.70;71.60;;;;;;4958360;28;20058;-79
2021/03/25 10:29:11;;;;;;;21.63;8.88;;;13.90;71.50;;;;;;4958105;28;20057;-78
2021/03/25 10:31:47;;;;;;;20.40;8.95;;;14.00;71.10;;;;;;4974755;28;20057;-77
2021/03/25 10:34:45;;;;;;;22.88;10.00;;;14.10;71.10;;;;;;4975186;28;20083;-78
2021/03/25 10:37:29;;;;;;;21.20;8.45;;;14.20;70.90;;;;;;4957288;28;20387;-78
2021/03/25 10:40:04;;;;;;;14.82;7.38;;;14.20;71.00;;;;;;4974191;28;20022;-77
2021/03/25 10:42:39;;;;;;;18.00;6.70;;;14.20;70.80;;;;;;4974968;28;20035;-77
2021/03/25 10:45:25;;;;;;;16.67;8.10;;;14.20;70.90;;;;;;4956973;28;20064;-77
2021/03/25 10:47:56;;;;;;;26.40;8.27;;;14.20;70.80;;;;;;4956827;28;20019;-78
2021/03/25 10:50:28;;;;;;;16.00;6.63;;;14.10;70.90;;;;;;4957202;28;20070;-76
2021/03/25 10:52:54;;;;;;;19.23;9.10;;;14.10;71.10;;;;;;4973490;28;20276;-77
2021/03/25 10:55:51;;;;;;;16.42;7.82;;;14.20;71.10;;;;;;4974711;28;20097;-78
2021/03/25 10:58:26;;;;;;;18.40;8.13;;;14.30;70.80;;;;;;4942025;28;20038;-77
2021/03/25 11:01:20;;;;;;;20.30;8.05;;;14.30;70.80;;;;;;4956420;28;20085;-77
2021/03/25 11:03:45;;;;;;;15.00;7.68;;;14.30;70.70;;;;;;4973006;28;20030;-77
2021/03/25 11:06:21;;;;;;;18.25;8.57;;;14.30;70.80;;;;;;4956361;28;20057;-77
2021/03/25 11:08:47;;;;;;;15.68;7.72;;;14.50;70.80;;;;;;4956320;28;20187;-77
2021/03/25 11:11:17;;;;;;;15.00;6.70;;;14.60;70.70;;;;;;4956886;28;20115;-78
2021/03/25 11:13:53;;;;;;;16.88;7.32;;;14.70;70.50;;;;;;4973619;28;20467;-76
2021/03/25 11:16:22;;;;;;;22.42;7.63;;;14.80;70.20;;;;;;4974366;28;20025;-78
2021/03/25 11:18:57;;;;;;;19.10;7.72;;;15.00;70.30;;;;;;4956274;28;20029;-77
2021/03/25 11:21:42;;;;;;;16.23;8.63;;;15.10;70.10;;;;;;4974357;28;20118;-77
2021/03/25 11:24:28;;;;;;;17.98;7.70;;;15.10;70.00;;;;;;4957255;28;20023;-78
2021/03/25 11:27:03;;;;;;;16.92;7.18;;;15.00;69.80;;;;;;4973543;28;20019;-77
2021/03/25 11:29:32;;;;;;;19.05;6.97;;;14.90;70.00;;;;;;4974302;28;20027;-78
2021/03/25 11:32:13;;;;;;;16.83;7.20;;;14.80;70.20;;;;;;4955972;28;20399;-78
2021/03/25 11:34:41;;;;;;;14.13;7.72;;;14.90;70.40;;;;;;4973228;28;20023;-75
2021/03/25 11:37:36;;;;;;;19.88;7.75;;;14.80;70.40;;;;;;4974004;28;20054;-77
2021/03/25 11:40:09;;;;;;;15.68;6.32;;;14.80;70.70;;;;;;4955857;28;20351;-77
2021/03/25 11:42:35;;;;;;;15.82;7.75;;;14.70;70.80;;;;;;4956454;28;20109;-76
2021/03/25 11:45:01;;;;;;;18.77;7.28;;;14.60;70.90;;;;;;4972924;28;20115;-78
2021/03/25 11:47:33;;;;;;;17.00;6.68;;;14.40;71.30;;;;;;4956204;28;20426;-77
2021/03/25 11:50:00;;;;;;;15.15;6.60;;;14.40;71.70;;;;;;4955738;28;20506;-78
2021/03/25 11:52:26;;;;;;;11.68;5.22;;;14.30;71.90;;;;;;4973672;28;20443;-78
2021/03/25 11:55:03;;;;;;;13.75;6.38;;;14.30;72.10;;;;;;4972831;28;20035;-77
2021/03/25 11:57:35;;;;;;;10.25;5.50;;;14.30;72.10;;;;;;4973393;28;20022;-77
2021/03/25 12:00:12;;;;;;;13.93;6.70;;;14.20;72.40;;;;;;4973039;28;20026;-77
2021/03/25 12:02:41;;;;;;;21.17;5.97;;;14.20;72.50;;;;;;4956004;28;20025;-78
2021/03/25 12:05:22;;;;;;;12.02;5.57;;;14.30;72.40;;;;;;4956213;28;20043;-78
2021/03/25 12:08:00;;;;;;;11.82;4.43;;;14.20;72.30;;;;;;4972632;28;20043;-77
2021/03/25 12:10:26;;;;;;;9.23;4.15;;;14.20;72.10;;;;;;4974197;28;20058;-77
2021/03/25 12:12:52;;;;;;;15.68;4.95;;;14.10;72.30;;;;;;4972684;28;20152;-77
2021/03/25 12:15:19;;;;;;;10.00;5.22;;;14.10;72.40;;;;;;4973115;28;20375;-77
2021/03/25 12:17:57;;;;;;;11.02;5.35;;;14.10;72.40;;;;;;4972573;28;20034;-75
2021/03/25 12:20:26;;;;;;;8.20;3.60;;;14.20;72.20;;;;;;4955999;28;20065;-77
2021/03/25 12:23:04;;;;;;;11.48;5.30;;;14.20;72.10;;;;;;4972305;28;20030;-77
2021/03/25 12:25:30;;;;;;;10.23;4.95;;;14.30;71.60;;;;;;4955872;28;20027;-77
2021/03/25 12:27:56;;;;;;;9.35;4.50;;;14.20;70.90;;;;;;4971869;28;20038;-78
2021/03/25 12:30:22;;;;;;;12.05;5.10;;;14.20;71.40;;;;;;4972960;28;20018;-78
2021/03/25 12:32:48;;;;;;;10.85;4.72;;;14.20;71.70;;;;;;4972258;28;20031;-77
2021/03/25 12:35:17;;;;;;;8.65;3.60;;;14.00;71.50;;;;;;4955477;28;20116;-78
2021/03/25 12:37:44;;;;;;;9.85;4.63;;;13.90;71.90;;;;;;4971905;28;20067;-76
2021/03/25 12:40:10;;;;;;;10.10;4.10;;;13.80;72.10;;;;;;4972835;28;20111;-77
2021/03/25 12:42:36;;;;;;;9.52;4.07;;;13.80;72.40;;;;;;4972417;28;20443;-76
2021/03/25 12:45:04;;;;;;;8.32;3.80;;;13.60;72.90;;;;;;4971969;28;20286;-76
2021/03/25 12:47:29;;;;;;;12.52;4.22;;;13.50;73.40;;;;;;4972469;28;20027;-77
2021/03/25 12:49:56;;;;;;;10.20;4.18;;;13.50;73.80;;;;;;4972380;28;20117;-78
2021/03/25 12:52:22;;;;;;;7.90;3.30;;;13.40;74.30;;;;;;4955354;28;20027;-78
2021/03/25 12:54:47;;;;;;;9.73;4.10;;;13.30;74.90;;;;;;4972289;28;20356;-76
2021/03/25 12:57:19;;;;;;;12.68;5.07;;;13.20;76.20;;;;;;4972521;28;20034;-77
2021/03/25 12:59:45;;;;;;;10.15;3.58;;;13.10;76.00;;;;;;4972459;28;20558;-77
2021/03/25 13:02:12;;;;;;;9.15;3.83;;;13.00;76.20;;;;;;4955379;28;20110;-78
2021/03/25 13:04:39;;;;;;;13.40;3.90;;;13.00;76.20;;;;;;4972592;28;20387;-77
2021/03/25 13:07:06;;;;;;;9.30;3.42;;;12.90;76.50;;;;;;4971814;28;20488;-78
2021/03/25 13:09:31;;;;;;;8.50;4.05;;;12.90;76.60;;;;;;4955343;28;20061;-78
2021/03/25 13:12:24;;;;;;;11.60;3.63;;;12.80;76.70;;;;;;4971965;28;20031;-79
2021/03/25 13:14:50;;;;;;;7.13;3.35;;;12.80;76.90;;;;;;4971960;28;20098;-77